sensor_id;sensor_type;location;lat;lon;timestamp;P1;durP1;ratioP1;P2;durP2;ratioP2
52396;SDS011;38322;53.108;6.308;2024-01-16T06:01:46;5.95;;;1.35;;
52396;SDS011;38322;53.108;6.308;2024-01-16T06:04:12;5.63;;;1.33;;
52396;SDS011;38322;53.108;6.308;2024-01-16T06:06:37;7.15;;;0.80;;
52396;SDS011;38322;53.108;6.308;2024-01-16T06:09:04;11.15;;;1.00;;
52396;SDS011;38322;53.108;6.308;2024-01-16T06:11:31;9.57;;;2.47;;
52396;SDS011;38322;53.108;6.308;2024-01-16T06:13:58;9.02;;;0.73;;
52396;SDS011;38322;53.108;6.308;2024-01-16T06:16:24;8.68;;;0.57;;
52396;SDS011;38322;53.108;6.308;2024-01-16T06:18:50;13.02;;;1.65;;
52396;SDS011;38322;53.108;6.308;2024-01-16T06:21:16;10.45;;;1.63;;
52396;SDS011;38322;53.108;6.308;2024-01-16T06:23:43;6.22;;;0.50;;
52396;SDS011;38322;53.108;6.308;2024-01-16T06:26:09;8.30;;;0.63;;
52396;SDS011;38322;53.108;6.308;2024-01-16T06:28:34;9.15;;;1.63;;
52396;SDS011;38322;53.108;6.308;2024-01-16T06:31:00;10.65;;;0.77;;
52396;SDS011;38322;53.108;6.308;2024-01-16T06:33:26;5.72;;;0.93;;
52396;SDS011;38322;53.108;6.308;2024-01-16T06:35:54;10.90;;;1.65;;
52396;SDS011;38322;53.108;6.308;2024-01-16T06:38:20;4.22;;;0.70;;
52396;SDS011;38322;53.108;6.308;2024-01-16T06:40:46;3.10;;;0.70;;
52396;SDS011;38322;53.108;6.308;2024-01-16T06:43:12;18.13;;;1.73;;
52396;SDS011;38322;53.108;6.308;2024-01-16T06:45:41;5.25;;;0.57;;
52396;SDS011;38322;53.108;6.308;2024-01-16T06:48:07;9.27;;;1.15;;
52396;SDS011;38322;53.108;6.308;2024-01-16T06:50:33;9.25;;;0.75;;
52396;SDS011;38322;53.108;6.308;2024-01-16T06:52:59;5.85;;;0.73;;
52396;SDS011;38322;53.108;6.308;2024-01-16T06:55:25;11.90;;;0.88;;
52396;SDS011;38322;53.108;6.308;2024-01-16T06:57:51;6.53;;;0.77;;
52396;SDS011;38322;53.108;6.308;2024-01-16T07:00:17;6.78;;;2.17;;
52396;SDS011;38322;53.108;6.308;2024-01-16T07:02:43;8.02;;;0.68;;
52396;SDS011;38322;53.108;6.308;2024-01-16T07:05:09;7.57;;;0.60;;
52396;SDS011;38322;53.108;6.308;2024-01-16T07:07:36;7.53;;;0.40;;
52396;SDS011;38322;53.108;6.308;2024-01-16T07:10:02;4.88;;;0.90;;
52396;SDS011;38322;53.108;6.308;2024-01-16T07:12:28;6.78;;;1.40;;
52396;SDS011;38322;53.108;6.308;2024-01-16T07:14:54;9.25;;;1.02;;
52396;SDS011;38322;53.108;6.308;2024-01-16T07:17:20;8.65;;;0.68;;
52396;SDS011;38322;53.108;6.308;2024-01-16T07:19:46;4.25;;;0.50;;
52396;SDS011;38322;53.108;6.308;2024-01-16T07:22:11;6.47;;;0.70;;
52396;SDS011;38322;53.108;6.308;2024-01-16T07:24:39;9.65;;;0.90;;
52396;SDS011;38322;53.108;6.308;2024-01-16T07:27:05;8.85;;;0.88;;
52396;SDS011;38322;53.108;6.308;2024-01-16T07:29:30;7.72;;;1.02;;
52396;SDS011;38322;53.108;6.308;2024-01-16T07:31:56;9.00;;;0.40;;
52396;SDS011;38322;53.108;6.308;2024-01-16T07:34:22;6.03;;;0.50;;
52396;SDS011;38322;53.108;6.308;2024-01-16T07:36:48;10.52;;;1.15;;
52396;SDS011;38322;53.108;6.308;2024-01-16T07:39:14;6.88;;;0.43;;
52396;SDS011;38322;53.108;6.308;2024-01-16T07:41:40;6.95;;;0.93;;
52396;SDS011;38322;53.108;6.308;2024-01-16T07:44:05;3.70;;;0.50;;
52396;SDS011;38322;53.108;6.308;2024-01-16T07:46:31;6.80;;;1.30;;
52396;SDS011;38322;53.108;6.308;2024-01-16T07:48:57;2.75;;;0.43;;
52396;SDS011;38322;53.108;6.308;2024-01-16T07:51:23;7.78;;;0.80;;
52396;SDS011;38322;53.108;6.308;2024-01-16T07:53:52;5.03;;;1.65;;
52396;SDS011;38322;53.108;6.308;2024-01-16T07:56:30;2.97;;;0.43;;
52396;SDS011;38322;53.108;6.308;2024-01-16T07:58:56;5.28;;;0.70;;
52396;SDS011;38322;53.108;6.308;2024-01-16T08:01:22;1.42;;;0.43;;
52396;SDS011;38322;53.108;6.308;2024-01-16T08:03:48;8.93;;;0.50;;
52396;SDS011;38322;53.108;6.308;2024-01-16T08:06:14;7.57;;;2.17;;
52396;SDS011;38322;53.108;6.308;2024-01-16T08:08:40;6.50;;;0.40;;
52396;SDS011;38322;53.108;6.308;2024-01-16T08:11:06;10.82;;;0.93;;
52396;SDS011;38322;53.108;6.308;2024-01-16T08:13:32;2.25;;;0.55;;
52396;SDS011;38322;53.108;6.308;2024-01-16T08:15:58;5.13;;;0.40;;
52396;SDS011;38322;53.108;6.308;2024-01-16T08:18:24;5.40;;;1.27;;
52396;SDS011;38322;53.108;6.308;2024-01-16T08:20:50;3.22;;;0.32;;
52396;SDS011;38322;53.108;6.308;2024-01-16T08:23:16;8.75;;;0.60;;
52396;SDS011;38322;53.108;6.308;2024-01-16T08:25:42;4.10;;;0.50;;
52396;SDS011;38322;53.108;6.308;2024-01-16T08:28:07;10.30;;;1.00;;
52396;SDS011;38322;53.108;6.308;2024-01-16T08:30:34;4.78;;;0.52;;
52396;SDS011;38322;53.108;6.308;2024-01-16T08:33:00;1.67;;;0.30;;
52396;SDS011;38322;53.108;6.308;2024-01-16T08:35:27;5.22;;;0.50;;
52396;SDS011;38322;53.108;6.308;2024-01-16T08:37:53;2.28;;;0.80;;
52396;SDS011;38322;53.108;6.308;2024-01-16T08:40:19;6.80;;;0.75;;
52396;SDS011;38322;53.108;6.308;2024-01-16T08:42:45;4.10;;;1.10;;
52396;SDS011;38322;53.108;6.308;2024-01-16T08:45:10;6.95;;;0.68;;
52396;SDS011;38322;53.108;6.308;2024-01-16T08:47:37;1.67;;;0.85;;
52396;SDS011;38322;53.108;6.308;2024-01-16T08:50:02;2.88;;;0.70;;
52396;SDS011;38322;53.108;6.308;2024-01-16T08:52:28;3.95;;;0.68;;
52396;SDS011;38322;53.108;6.308;2024-01-16T08:54:54;3.38;;;0.70;;
52396;SDS011;38322;53.108;6.308;2024-01-16T08:57:20;6.57;;;0.55;;
52396;SDS011;38322;53.108;6.308;2024-01-16T08:59:46;7.05;;;1.02;;
52396;SDS011;38322;53.108;6.308;2024-01-16T09:02:12;4.97;;;0.20;;
52396;SDS011;38322;53.108;6.308;2024-01-16T09:04:38;7.03;;;0.70;;
52396;SDS011;38322;53.108;6.308;2024-01-16T09:07:04;6.05;;;0.40;;
52396;SDS011;38322;53.108;6.308;2024-01-16T09:09:30;5.45;;;0.55;;
52396;SDS011;38322;53.108;6.308;2024-01-16T09:11:55;3.13;;;0.30;;
52396;SDS011;38322;53.108;6.308;2024-01-16T09:14:23;11.88;;;1.65;;
52396;SDS011;38322;53.108;6.308;2024-01-16T09:16:48;10.75;;;2.35;;
52396;SDS011;38322;53.108;6.308;2024-01-16T09:19:14;5.93;;;0.85;;
52396;SDS011;38322;53.108;6.308;2024-01-16T09:21:41;4.22;;;0.20;;
52396;SDS011;38322;53.108;6.308;2024-01-16T09:24:07;4.18;;;0.40;;
52396;SDS011;38322;53.108;6.308;2024-01-16T09:26:33;2.47;;;0.32;;
52396;SDS011;38322;53.108;6.308;2024-01-16T09:28:59;4.50;;;0.52;;
52396;SDS011;38322;53.108;6.308;2024-01-16T09:31:25;9.18;;;0.40;;
52396;SDS011;38322;53.108;6.308;2024-01-16T09:33:51;4.78;;;0.20;;
52396;SDS011;38322;53.108;6.308;2024-01-16T09:36:16;7.25;;;1.00;;
52396;SDS011;38322;53.108;6.308;2024-01-16T09:38:42;3.30;;;0.57;;
52396;SDS011;38322;53.108;6.308;2024-01-16T09:41:08;2.45;;;0.28;;
52396;SDS011;38322;53.108;6.308;2024-01-16T09:43:35;2.60;;;0.73;;
52396;SDS011;38322;53.108;6.308;2024-01-16T09:46:02;4.28;;;0.65;;
52396;SDS011;38322;53.108;6.308;2024-01-16T09:48:31;3.67;;;0.22;;
52396;SDS011;38322;53.108;6.308;2024-01-16T09:50:57;3.35;;;0.20;;
52396;SDS011;38322;53.108;6.308;2024-01-16T09:53:23;2.42;;;0.20;;
52396;SDS011;38322;53.108;6.308;2024-01-16T09:55:49;3.05;;;0.47;;
52396;SDS011;38322;53.108;6.308;2024-01-16T09:58:19;3.75;;;0.50;;
52396;SDS011;38322;53.108;6.308;2024-01-16T10:00:46;2.13;;;0.40;;
52396;SDS011;38322;53.108;6.308;2024-01-16T10:03:13;3.95;;;0.45;;
52396;SDS011;38322;53.108;6.308;2024-01-16T10:05:40;5.05;;;0.77;;
52396;SDS011;38322;53.108;6.308;2024-01-16T10:08:07;3.50;;;0.43;;
52396;SDS011;38322;53.108;6.308;2024-01-16T10:10:33;5.68;;;0.35;;
52396;SDS011;38322;53.108;6.308;2024-01-16T10:13:00;3.08;;;0.55;;
52396;SDS011;38322;53.108;6.308;2024-01-16T10:15:26;4.22;;;0.38;;
52396;SDS011;38322;53.108;6.308;2024-01-16T10:17:52;4.82;;;0.40;;
52396;SDS011;38322;53.108;6.308;2024-01-16T10:20:18;4.80;;;0.85;;
52396;SDS011;38322;53.108;6.308;2024-01-16T10:22:57;2.65;;;0.65;;
52396;SDS011;38322;53.108;6.308;2024-01-16T10:25:23;4.80;;;0.88;;
52396;SDS011;38322;53.108;6.308;2024-01-16T10:27:50;5.18;;;1.00;;
52396;SDS011;38322;53.108;6.308;2024-01-16T10:30:28;3.47;;;1.00;;
52396;SDS011;38322;53.108;6.308;2024-01-16T10:32:54;5.13;;;0.90;;
52396;SDS011;38322;53.108;6.308;2024-01-16T10:35:22;5.97;;;1.48;;
52396;SDS011;38322;53.108;6.308;2024-01-16T10:37:49;9.75;;;1.67;;
52396;SDS011;38322;53.108;6.308;2024-01-16T10:40:17;7.13;;;1.50;;
52396;SDS011;38322;53.108;6.308;2024-01-16T10:42:46;4.43;;;1.80;;
52396;SDS011;38322;53.108;6.308;2024-01-16T10:45:21;10.48;;;2.15;;
52396;SDS011;38322;53.108;6.308;2024-01-16T10:47:47;5.97;;;1.65;;
52396;SDS011;38322;53.108;6.308;2024-01-16T10:50:25;5.28;;;1.77;;
52396;SDS011;38322;53.108;6.308;2024-01-16T10:52:51;4.78;;;1.08;;
52396;SDS011;38322;53.108;6.308;2024-01-16T10:55:20;4.32;;;1.13;;
52396;SDS011;38322;53.108;6.308;2024-01-16T10:57:48;7.75;;;1.33;;
52396;SDS011;38322;53.108;6.308;2024-01-16T11:00:17;5.82;;;2.25;;
52396;SDS011;38322;53.108;6.308;2024-01-16T11:05:17;3.38;;;0.40;;
52396;SDS011;38322;53.108;6.308;2024-01-16T11:07:43;2.90;;;0.68;;
52396;SDS011;38322;53.108;6.308;2024-01-16T11:10:10;4.32;;;0.73;;
52396;SDS011;38322;53.108;6.308;2024-01-16T11:12:38;3.47;;;0.75;;
52396;SDS011;38322;53.108;6.308;2024-01-16T11:15:05;2.88;;;0.38;;
52396;SDS011;38322;53.108;6.308;2024-01-16T11:17:34;3.38;;;0.40;;
52396;SDS011;38322;53.108;6.308;2024-01-16T11:20:01;0.70;;;0.32;;
52396;SDS011;38322;53.108;6.308;2024-01-16T11:22:36;2.08;;;0.50;;
52396;SDS011;38322;53.108;6.308;2024-01-16T11:25:08;2.92;;;0.30;;
52396;SDS011;38322;53.108;6.308;2024-01-16T11:27:38;2.63;;;0.73;;
52396;SDS011;38322;53.108;6.308;2024-01-16T11:30:05;3.20;;;0.52;;
52396;SDS011;38322;53.108;6.308;2024-01-16T11:32:33;2.92;;;0.57;;
52396;SDS011;38322;53.108;6.308;2024-01-16T11:35:01;3.33;;;0.85;;
52396;SDS011;38322;53.108;6.308;2024-01-16T11:37:28;5.50;;;0.68;;
52396;SDS011;38322;53.108;6.308;2024-01-16T11:42:39;8.52;;;1.77;;
52396;SDS011;38322;53.108;6.308;2024-01-16T11:45:08;3.53;;;0.80;;
52396;SDS011;38322;53.108;6.308;2024-01-16T11:48:08;2.50;;;0.70;;
52396;SDS011;38322;53.108;6.308;2024-01-16T11:50:35;6.63;;;0.70;;
52396;SDS011;38322;53.108;6.308;2024-01-16T11:53:01;5.15;;;0.70;;
52396;SDS011;38322;53.108;6.308;2024-01-16T11:55:27;2.10;;;0.60;;
52396;SDS011;38322;53.108;6.308;2024-01-16T12:01:03;1.95;;;0.77;;
52396;SDS011;38322;53.108;6.308;2024-01-16T12:03:31;4.75;;;1.23;;
52396;SDS011;38322;53.108;6.308;2024-01-16T12:05:58;5.05;;;0.60;;
52396;SDS011;38322;53.108;6.308;2024-01-16T12:08:25;1.98;;;1.30;;
52396;SDS011;38322;53.108;6.308;2024-01-16T12:10:51;8.15;;;1.63;;
52396;SDS011;38322;53.108;6.308;2024-01-16T12:13:18;4.00;;;1.23;;
52396;SDS011;38322;53.108;6.308;2024-01-16T12:15:44;8.23;;;1.10;;
52396;SDS011;38322;53.108;6.308;2024-01-16T12:18:17;11.98;;;2.08;;
52396;SDS011;38322;53.108;6.308;2024-01-16T12:20:43;4.57;;;0.98;;
52396;SDS011;38322;53.108;6.308;2024-01-16T12:23:09;6.63;;;1.08;;
52396;SDS011;38322;53.108;6.308;2024-01-16T12:25:37;9.40;;;1.85;;
52396;SDS011;38322;53.108;6.308;2024-01-16T12:28:04;5.47;;;1.92;;
52396;SDS011;38322;53.108;6.308;2024-01-16T12:30:33;5.28;;;2.75;;
52396;SDS011;38322;53.108;6.308;2024-01-16T12:35:33;4.68;;;2.63;;
52396;SDS011;38322;53.108;6.308;2024-01-16T12:38:00;7.47;;;2.78;;
52396;SDS011;38322;53.108;6.308;2024-01-16T12:40:27;5.72;;;2.05;;
52396;SDS011;38322;53.108;6.308;2024-01-16T12:42:54;5.82;;;1.75;;
52396;SDS011;38322;53.108;6.308;2024-01-16T12:45:21;6.00;;;2.40;;
52396;SDS011;38322;53.108;6.308;2024-01-16T12:47:50;7.47;;;2.22;;
52396;SDS011;38322;53.108;6.308;2024-01-16T12:50:19;14.80;;;2.83;;
52396;SDS011;38322;53.108;6.308;2024-01-16T12:52:48;5.55;;;2.53;;
52396;SDS011;38322;53.108;6.308;2024-01-16T12:55:15;7.50;;;1.73;;
52396;SDS011;38322;53.108;6.308;2024-01-16T12:57:43;13.82;;;2.95;;
52396;SDS011;38322;53.108;6.308;2024-01-16T13:00:21;6.53;;;2.55;;
52396;SDS011;38322;53.108;6.308;2024-01-16T13:02:49;5.38;;;2.35;;
52396;SDS011;38322;53.108;6.308;2024-01-16T13:05:17;5.70;;;2.08;;
52396;SDS011;38322;53.108;6.308;2024-01-16T13:07:44;8.18;;;1.88;;
52396;SDS011;38322;53.108;6.308;2024-01-16T13:10:11;7.47;;;2.63;;
52396;SDS011;38322;53.108;6.308;2024-01-16T13:12:41;8.48;;;2.05;;
52396;SDS011;38322;53.108;6.308;2024-01-16T13:15:07;7.20;;;3.30;;
52396;SDS011;38322;53.108;6.308;2024-01-16T13:17:34;10.02;;;2.58;;
52396;SDS011;38322;53.108;6.308;2024-01-16T13:20:00;7.78;;;2.42;;
52396;SDS011;38322;53.108;6.308;2024-01-16T13:22:28;5.05;;;2.05;;
52396;SDS011;38322;53.108;6.308;2024-01-16T13:24:54;10.68;;;2.78;;
52396;SDS011;38322;53.108;6.308;2024-01-16T13:27:21;5.55;;;2.15;;
52396;SDS011;38322;53.108;6.308;2024-01-16T13:29:47;8.90;;;2.03;;
52396;SDS011;38322;53.108;6.308;2024-01-16T13:32:13;9.25;;;2.72;;
52396;SDS011;38322;53.108;6.308;2024-01-16T13:34:39;4.45;;;2.10;;
52396;SDS011;38322;53.108;6.308;2024-01-16T13:37:11;9.15;;;2.30;;
52396;SDS011;38322;53.108;6.308;2024-01-16T13:39:45;11.25;;;3.05;;
52396;SDS011;38322;53.108;6.308;2024-01-16T13:42:11;8.55;;;3.47;;
52396;SDS011;38322;53.108;6.308;2024-01-16T13:44:37;6.57;;;3.00;;
52396;SDS011;38322;53.108;6.308;2024-01-16T13:47:04;7.03;;;2.03;;
52396;SDS011;38322;53.108;6.308;2024-01-16T13:49:30;6.80;;;2.65;;
52396;SDS011;38322;53.108;6.308;2024-01-16T13:51:58;11.40;;;2.47;;
52396;SDS011;38322;53.108;6.308;2024-01-16T13:54:24;7.07;;;2.65;;
52396;SDS011;38322;53.108;6.308;2024-01-16T13:56:51;5.68;;;2.28;;
52396;SDS011;38322;53.108;6.308;2024-01-16T13:59:17;8.02;;;2.10;;
52396;SDS011;38322;53.108;6.308;2024-01-16T14:01:43;5.90;;;1.70;;
52396;SDS011;38322;53.108;6.308;2024-01-16T14:04:10;5.90;;;1.48;;
52396;SDS011;38322;53.108;6.308;2024-01-16T14:06:35;5.72;;;2.28;;
52396;SDS011;38322;53.108;6.308;2024-01-16T14:09:01;15.10;;;2.30;;
52396;SDS011;38322;53.108;6.308;2024-01-16T14:11:28;3.88;;;2.83;;
52396;SDS011;38322;53.108;6.308;2024-01-16T14:13:53;5.05;;;2.22;;
52396;SDS011;38322;53.108;6.308;2024-01-16T14:16:19;8.50;;;1.58;;
52396;SDS011;38322;53.108;6.308;2024-01-16T14:18:46;6.93;;;1.40;;
52396;SDS011;38322;53.108;6.308;2024-01-16T14:21:12;7.35;;;1.08;;
52396;SDS011;38322;53.108;6.308;2024-01-16T14:23:38;6.15;;;1.45;;
52396;SDS011;38322;53.108;6.308;2024-01-16T14:26:04;4.75;;;0.90;;
52396;SDS011;38322;53.108;6.308;2024-01-16T14:28:30;3.25;;;0.82;;
52396;SDS011;38322;53.108;6.308;2024-01-16T14:30:57;4.72;;;0.90;;
52396;SDS011;38322;53.108;6.308;2024-01-16T14:33:23;2.28;;;0.75;;
52396;SDS011;38322;53.108;6.308;2024-01-16T14:35:48;7.93;;;3.47;;
52396;SDS011;38322;53.108;6.308;2024-01-16T14:38:14;5.32;;;0.88;;
52396;SDS011;38322;53.108;6.308;2024-01-16T14:40:40;3.45;;;0.80;;
52396;SDS011;38322;53.108;6.308;2024-01-16T14:43:06;5.22;;;1.95;;
52396;SDS011;38322;53.108;6.308;2024-01-16T14:45:32;6.28;;;0.85;;
52396;SDS011;38322;53.108;6.308;2024-01-16T14:47:58;11.57;;;0.95;;
52396;SDS011;38322;53.108;6.308;2024-01-16T14:50:24;7.97;;;1.08;;
52396;SDS011;38322;53.108;6.308;2024-01-16T14:52:50;4.50;;;1.00;;
52396;SDS011;38322;53.108;6.308;2024-01-16T14:55:17;5.35;;;1.65;;
52396;SDS011;38322;53.108;6.308;2024-01-16T14:57:45;3.67;;;0.57;;
52396;SDS011;38322;53.108;6.308;2024-01-16T15:00:15;7.68;;;1.90;;
52396;SDS011;38322;53.108;6.308;2024-01-16T15:02:46;2.63;;;0.75;;
52396;SDS011;38322;53.108;6.308;2024-01-16T15:05:13;4.97;;;1.55;;
52396;SDS011;38322;53.108;6.308;2024-01-16T15:07:41;6.95;;;0.50;;
52396;SDS011;38322;53.108;6.308;2024-01-16T15:10:08;7.63;;;2.17;;
52396;SDS011;38322;53.108;6.308;2024-01-16T15:12:35;5.65;;;1.15;;
52396;SDS011;38322;53.108;6.308;2024-01-16T15:15:01;7.25;;;1.60;;
52396;SDS011;38322;53.108;6.308;2024-01-16T15:17:29;4.22;;;0.65;;
52396;SDS011;38322;53.108;6.308;2024-01-16T15:19:55;6.35;;;0.75;;
52396;SDS011;38322;53.108;6.308;2024-01-16T15:22:21;5.30;;;0.95;;
52396;SDS011;38322;53.108;6.308;2024-01-16T15:24:47;4.90;;;1.08;;
52396;SDS011;38322;53.108;6.308;2024-01-16T15:27:12;5.85;;;1.38;;
52396;SDS011;38322;53.108;6.308;2024-01-16T15:29:38;4.20;;;1.15;;
52396;SDS011;38322;53.108;6.308;2024-01-16T15:32:04;6.05;;;1.08;;
52396;SDS011;38322;53.108;6.308;2024-01-16T15:34:31;6.00;;;1.17;;
52396;SDS011;38322;53.108;6.308;2024-01-16T15:36:57;10.30;;;1.73;;
52396;SDS011;38322;53.108;6.308;2024-01-16T15:39:24;6.88;;;1.00;;
52396;SDS011;38322;53.108;6.308;2024-01-16T15:41:50;6.15;;;1.00;;
52396;SDS011;38322;53.108;6.308;2024-01-16T15:44:16;10.38;;;1.63;;
52396;SDS011;38322;53.108;6.308;2024-01-16T15:46:55;6.03;;;0.63;;
52396;SDS011;38322;53.108;6.308;2024-01-16T15:49:21;9.85;;;1.88;;
52396;SDS011;38322;53.108;6.308;2024-01-16T15:51:47;6.55;;;1.08;;
52396;SDS011;38322;53.108;6.308;2024-01-16T15:54:14;9.20;;;0.95;;
52396;SDS011;38322;53.108;6.308;2024-01-16T15:56:40;7.68;;;1.25;;
52396;SDS011;38322;53.108;6.308;2024-01-16T15:59:07;7.35;;;1.30;;
52396;SDS011;38322;53.108;6.308;2024-01-16T16:01:36;4.72;;;1.48;;
52396;SDS011;38322;53.108;6.308;2024-01-16T16:04:03;6.78;;;1.40;;
52396;SDS011;38322;53.108;6.308;2024-01-16T16:06:33;7.22;;;1.27;;
52396;SDS011;38322;53.108;6.308;2024-01-16T16:09:00;3.25;;;1.08;;
52396;SDS011;38322;53.108;6.308;2024-01-16T16:11:27;6.10;;;1.05;;
52396;SDS011;38322;53.108;6.308;2024-01-16T16:13:53;5.80;;;1.27;;
52396;SDS011;38322;53.108;6.308;2024-01-16T16:16:19;5.22;;;1.77;;
52396;SDS011;38322;53.108;6.308;2024-01-16T16:18:45;6.32;;;1.50;;
52396;SDS011;38322;53.108;6.308;2024-01-16T16:21:11;5.43;;;0.95;;
52396;SDS011;38322;53.108;6.308;2024-01-16T16:23:37;2.67;;;1.05;;
52396;SDS011;38322;53.108;6.308;2024-01-16T16:26:04;3.85;;;0.60;;
52396;SDS011;38322;53.108;6.308;2024-01-16T16:28:30;8.10;;;1.17;;
52396;SDS011;38322;53.108;6.308;2024-01-16T16:30:57;6.97;;;2.55;;
52396;SDS011;38322;53.108;6.308;2024-01-16T16:33:24;5.07;;;1.40;;
52396;SDS011;38322;53.108;6.308;2024-01-16T16:35:51;6.28;;;1.55;;
52396;SDS011;38322;53.108;6.308;2024-01-16T16:38:16;3.33;;;1.15;;
52396;SDS011;38322;53.108;6.308;2024-01-16T16:40:43;9.95;;;1.85;;
52396;SDS011;38322;53.108;6.308;2024-01-16T16:43:10;4.95;;;2.33;;
52396;SDS011;38322;53.108;6.308;2024-01-16T16:45:36;7.55;;;1.25;;
52396;SDS011;38322;53.108;6.308;2024-01-16T16:48:03;3.13;;;1.27;;
52396;SDS011;38322;53.108;6.308;2024-01-16T16:50:29;3.00;;;1.75;;
52396;SDS011;38322;53.108;6.308;2024-01-16T16:52:55;5.63;;;2.25;;
52396;SDS011;38322;53.108;6.308;2024-01-16T16:55:20;7.80;;;1.90;;
52396;SDS011;38322;53.108;6.308;2024-01-16T16:57:46;7.03;;;1.70;;
52396;SDS011;38322;53.108;6.308;2024-01-16T17:00:12;5.22;;;1.42;;
52396;SDS011;38322;53.108;6.308;2024-01-16T17:02:39;5.80;;;1.38;;
52396;SDS011;38322;53.108;6.308;2024-01-16T17:05:05;8.85;;;2.13;;
52396;SDS011;38322;53.108;6.308;2024-01-16T17:07:32;5.72;;;1.38;;
52396;SDS011;38322;53.108;6.308;2024-01-16T17:09:58;5.75;;;2.08;;
52396;SDS011;38322;53.108;6.308;2024-01-16T17:12:24;7.25;;;2.03;;
52396;SDS011;38322;53.108;6.308;2024-01-16T17:14:50;5.22;;;1.35;;
52396;SDS011;38322;53.108;6.308;2024-01-16T17:17:19;6.82;;;1.45;;
52396;SDS011;38322;53.108;6.308;2024-01-16T17:19:45;5.93;;;2.25;;
52396;SDS011;38322;53.108;6.308;2024-01-16T17:22:12;3.22;;;2.05;;
52396;SDS011;38322;53.108;6.308;2024-01-16T17:24:39;8.25;;;1.35;;
52396;SDS011;38322;53.108;6.308;2024-01-16T17:27:04;5.65;;;1.25;;
52396;SDS011;38322;53.108;6.308;2024-01-16T17:29:30;6.55;;;1.88;;
52396;SDS011;38322;53.108;6.308;2024-01-16T17:31:56;4.38;;;1.35;;
52396;SDS011;38322;53.108;6.308;2024-01-16T17:34:23;8.75;;;2.13;;
52396;SDS011;38322;53.108;6.308;2024-01-16T17:36:49;3.20;;;1.10;;
52396;SDS011;38322;53.108;6.308;2024-01-16T17:39:15;7.80;;;1.08;;
52396;SDS011;38322;53.108;6.308;2024-01-16T17:41:44;4.70;;;1.23;;
52396;SDS011;38322;53.108;6.308;2024-01-16T17:44:10;4.88;;;1.23;;
52396;SDS011;38322;53.108;6.308;2024-01-16T17:46:36;3.60;;;1.00;;
52396;SDS011;38322;53.108;6.308;2024-01-16T17:49:02;3.38;;;0.98;;
52396;SDS011;38322;53.108;6.308;2024-01-16T17:51:28;3.33;;;1.00;;
52396;SDS011;38322;53.108;6.308;2024-01-16T17:53:55;4.07;;;1.00;;
52396;SDS011;38322;53.108;6.308;2024-01-16T17:56:21;3.38;;;0.80;;
52396;SDS011;38322;53.108;6.308;2024-01-16T17:58:47;4.70;;;0.93;;
52396;SDS011;38322;53.108;6.308;2024-01-16T18:01:13;10.63;;;1.00;;
52396;SDS011;38322;53.108;6.308;2024-01-16T18:03:40;5.85;;;1.58;;
52396;SDS011;38322;53.108;6.308;2024-01-16T18:06:07;4.93;;;0.80;;
52396;SDS011;38322;53.108;6.308;2024-01-16T18:08:34;5.80;;;1.10;;
52396;SDS011;38322;53.108;6.308;2024-01-16T18:11:02;4.55;;;1.10;;
52396;SDS011;38322;53.108;6.308;2024-01-16T18:13:30;5.75;;;1.13;;
52396;SDS011;38322;53.108;6.308;2024-01-16T18:15:57;4.45;;;1.23;;
52396;SDS011;38322;53.108;6.308;2024-01-16T18:18:23;4.60;;;0.93;;
52396;SDS011;38322;53.108;6.308;2024-01-16T18:20:50;9.30;;;1.90;;
52396;SDS011;38322;53.108;6.308;2024-01-16T18:23:16;1.90;;;1.20;;
52396;SDS011;38322;53.108;6.308;2024-01-16T18:25:43;6.03;;;2.15;;
52396;SDS011;38322;53.108;6.308;2024-01-16T18:28:11;7.60;;;2.05;;
52396;SDS011;38322;53.108;6.308;2024-01-16T18:30:37;4.00;;;1.40;;
52396;SDS011;38322;53.108;6.308;2024-01-16T18:33:04;4.57;;;2.00;;
52396;SDS011;38322;53.108;6.308;2024-01-16T18:35:30;6.85;;;2.13;;
52396;SDS011;38322;53.108;6.308;2024-01-16T18:37:56;4.80;;;2.00;;
52396;SDS011;38322;53.108;6.308;2024-01-16T18:40:22;11.40;;;3.00;;
52396;SDS011;38322;53.108;6.308;2024-01-16T18:42:51;8.70;;;2.67;;
52396;SDS011;38322;53.108;6.308;2024-01-16T18:45:16;9.05;;;3.08;;
52396;SDS011;38322;53.108;6.308;2024-01-16T18:47:43;3.75;;;2.55;;
52396;SDS011;38322;53.108;6.308;2024-01-16T18:50:10;9.20;;;2.78;;
52396;SDS011;38322;53.108;6.308;2024-01-16T18:52:38;5.72;;;3.28;;
52396;SDS011;38322;53.108;6.308;2024-01-16T18:55:06;5.90;;;3.30;;
52396;SDS011;38322;53.108;6.308;2024-01-16T18:57:37;8.88;;;3.03;;
52396;SDS011;38322;53.108;6.308;2024-01-16T19:00:06;7.53;;;3.55;;
52396;SDS011;38322;53.108;6.308;2024-01-16T19:02:40;6.43;;;3.25;;
52396;SDS011;38322;53.108;6.308;2024-01-16T19:05:09;8.45;;;3.17;;
52396;SDS011;38322;53.108;6.308;2024-01-16T19:07:38;6.82;;;3.78;;
52396;SDS011;38322;53.108;6.308;2024-01-16T19:10:06;6.80;;;3.90;;
52396;SDS011;38322;53.108;6.308;2024-01-16T19:12:39;8.93;;;4.20;;
52396;SDS011;38322;53.108;6.308;2024-01-16T19:15:07;9.50;;;3.90;;
52396;SDS011;38322;53.108;6.308;2024-01-16T19:17:34;6.50;;;3.35;;
52396;SDS011;38322;53.108;6.308;2024-01-16T19:20:00;6.63;;;3.40;;
52396;SDS011;38322;53.108;6.308;2024-01-16T19:22:35;8.98;;;3.78;;
52396;SDS011;38322;53.108;6.308;2024-01-16T19:25:02;5.72;;;3.88;;
52396;SDS011;38322;53.108;6.308;2024-01-16T19:27:28;9.13;;;4.30;;
52396;SDS011;38322;53.108;6.308;2024-01-16T19:29:54;11.15;;;4.35;;
52396;SDS011;38322;53.108;6.308;2024-01-16T19:32:20;9.27;;;3.53;;
52396;SDS011;38322;53.108;6.308;2024-01-16T19:34:46;7.75;;;4.50;;
52396;SDS011;38322;53.108;6.308;2024-01-16T19:37:11;7.82;;;4.95;;
52396;SDS011;38322;53.108;6.308;2024-01-16T19:39:38;8.07;;;4.40;;
52396;SDS011;38322;53.108;6.308;2024-01-16T19:42:07;8.05;;;4.57;;
52396;SDS011;38322;53.108;6.308;2024-01-16T19:44:34;8.10;;;4.70;;
52396;SDS011;38322;53.108;6.308;2024-01-16T19:47:00;7.45;;;4.50;;
52396;SDS011;38322;53.108;6.308;2024-01-16T19:49:26;6.80;;;4.20;;
52396;SDS011;38322;53.108;6.308;2024-01-16T19:51:51;10.98;;;5.10;;
52396;SDS011;38322;53.108;6.308;2024-01-16T19:54:18;11.20;;;4.65;;
52396;SDS011;38322;53.108;6.308;2024-01-16T19:56:44;6.22;;;4.75;;
52396;SDS011;38322;53.108;6.308;2024-01-16T19:59:10;11.35;;;4.03;;
52396;SDS011;38322;53.108;6.308;2024-01-16T20:01:36;7.45;;;4.38;;
52396;SDS011;38322;53.108;6.308;2024-01-16T20:04:02;6.10;;;4.10;;
52396;SDS011;38322;53.108;6.308;2024-01-16T20:06:30;12.93;;;5.22;;
52396;SDS011;38322;53.108;6.308;2024-01-16T20:08:56;8.43;;;4.78;;
52396;SDS011;38322;53.108;6.308;2024-01-16T20:11:24;13.60;;;5.22;;
52396;SDS011;38322;53.108;6.308;2024-01-16T20:13:52;8.05;;;4.85;;
52396;SDS011;38322;53.108;6.308;2024-01-16T20:16:18;11.68;;;6.38;;
52396;SDS011;38322;53.108;6.308;2024-01-16T20:18:47;9.00;;;5.65;;
52396;SDS011;38322;53.108;6.308;2024-01-16T20:21:13;10.73;;;4.70;;
52396;SDS011;38322;53.108;6.308;2024-01-16T20:23:39;11.00;;;5.72;;
52396;SDS011;38322;53.108;6.308;2024-01-16T20:26:05;7.40;;;4.75;;
52396;SDS011;38322;53.108;6.308;2024-01-16T20:28:31;13.68;;;5.85;;
52396;SDS011;38322;53.108;6.308;2024-01-16T20:30:57;14.15;;;5.22;;
52396;SDS011;38322;53.108;6.308;2024-01-16T20:33:23;11.82;;;5.55;;
52396;SDS011;38322;53.108;6.308;2024-01-16T20:35:50;10.52;;;6.25;;
52396;SDS011;38322;53.108;6.308;2024-01-16T20:38:17;12.15;;;5.97;;
52396;SDS011;38322;53.108;6.308;2024-01-16T20:40:43;12.05;;;6.78;;
52396;SDS011;38322;53.108;6.308;2024-01-16T20:43:09;13.23;;;5.53;;
52396;SDS011;38322;53.108;6.308;2024-01-16T20:45:35;8.05;;;5.57;;
52396;SDS011;38322;53.108;6.308;2024-01-16T20:48:01;9.05;;;6.25;;
52396;SDS011;38322;53.108;6.308;2024-01-16T20:50:27;12.98;;;5.78;;
52396;SDS011;38322;53.108;6.308;2024-01-16T20:52:53;10.85;;;5.72;;
52396;SDS011;38322;53.108;6.308;2024-01-16T20:55:20;11.43;;;6.47;;